Time;durP1;ratioP1;P1;durP2;ratioP2;P2;SDS_P1;SDS_P2;PMS_P1;PMS_P2;Temp;Humidity;BMP_temperature;BMP_pressure;BME280_temperature;BME280_humidity;BME280_pressure;Samples;Min_cycle;Max_cycle;Signal;HPM_P1;HPM_P2
2022/05/02 00:00:12;;;;;;;1.00;0.85;;;8.70;66.20;;;;;;5060459;28;20042;-71
2022/05/02 00:02:38;;;;;;;1.00;0.80;;;8.70;66.30;;;;;;5112396;28;20039;-70
2022/05/02 00:05:05;;;;;;;1.20;0.90;;;8.70;66.50;;;;;;5111985;28;20112;-71
2022/05/02 00:07:32;;;;;;;1.67;0.95;;;8.60;66.50;;;;;;5112108;28;20040;-71
2022/05/02 00:09:57;;;;;;;0.57;0.57;;;8.70;66.60;;;;;;5111993;28;20050;-71
2022/05/02 00:12:23;;;;;;;0.70;0.70;;;8.60;66.60;;;;;;5112020;28;20044;-71
2022/05/02 00:14:49;;;;;;;0.50;0.50;;;8.60;66.70;;;;;;5111945;28;20046;-71
2022/05/02 00:17:16;;;;;;;1.10;0.77;;;8.50;66.80;;;;;;5111767;28;20046;-71
2022/05/02 00:19:42;;;;;;;1.08;0.85;;;8.50;66.80;;;;;;5093791;28;20032;-71
2022/05/02 00:22:08;;;;;;;1.15;0.80;;;8.40;66.80;;;;;;5111803;28;20532;-71
2022/05/02 00:24:34;;;;;;;0.73;0.70;;;8.40;66.90;;;;;;5111694;28;20071;-70
2022/05/02 00:26:59;;;;;;;1.35;0.90;;;8.40;67.00;;;;;;5093910;28;20392;-71
2022/05/02 00:29:25;;;;;;;0.82;0.70;;;8.40;67.10;;;;;;5111781;28;20400;-71
2022/05/02 00:31:51;;;;;;;0.90;0.60;;;8.40;67.10;;;;;;5112081;28;20537;-71
2022/05/02 00:34:17;;;;;;;1.17;0.80;;;8.40;67.20;;;;;;5111266;28;20032;-71
2022/05/02 00:36:43;;;;;;;1.20;0.70;;;8.40;67.20;;;;;;5093649;28;20035;-71
2022/05/02 00:39:09;;;;;;;0.88;0.55;;;8.40;67.20;;;;;;5111683;28;20062;-71
2022/05/02 00:41:35;;;;;;;0.93;0.82;;;8.40;67.20;;;;;;5111372;28;20524;-71
2022/05/02 00:44:01;;;;;;;0.88;0.70;;;8.30;67.20;;;;;;5112132;28;20046;-71
2022/05/02 00:46:27;;;;;;;1.15;0.57;;;8.30;67.30;;;;;;5093496;28;20370;-71
2022/05/02 00:48:54;;;;;;;1.17;0.65;;;8.20;67.30;;;;;;5093395;28;20073;-71
2022/05/02 00:51:21;;;;;;;0.77;0.70;;;8.20;67.40;;;;;;5115390;28;20050;-71
2022/05/02 00:53:49;;;;;;;1.08;0.80;;;8.20;67.50;;;;;;5115329;28;20043;-71
2022/05/02 00:56:17;;;;;;;1.17;0.82;;;8.20;67.50;;;;;;5115433;28;20136;-71
2022/05/02 00:58:44;;;;;;;1.08;0.75;;;8.20;67.50;;;;;;5113156;28;20126;-70
2022/05/02 01:01:09;;;;;;;1.25;0.80;;;8.20;67.60;;;;;;5114860;28;20097;-70
2022/05/02 01:03:35;;;;;;;1.02;0.68;;;8.10;67.50;;;;;;5115324;28;20075;-71
2022/05/02 01:08:43;;;;;;;0.93;0.77;;;8.20;67.70;;;;;;5114703;28;20046;-70
2022/05/02 01:11:08;;;;;;;0.70;0.70;;;8.10;67.70;;;;;;5096408;28;20043;-70
2022/05/02 01:13:39;;;;;;;0.52;0.47;;;8.20;67.80;;;;;;5114765;28;20040;-71
2022/05/02 01:16:17;;;;;;;0.82;0.73;;;8.10;67.80;;;;;;5114485;28;20085;-70
2022/05/02 01:18:46;;;;;;;0.60;0.60;;;8.10;67.90;;;;;;5096187;28;20076;-71
2022/05/02 01:21:14;;;;;;;0.80;0.55;;;8.10;67.90;;;;;;5115090;28;20039;-71
2022/05/02 01:23:41;;;;;;;1.10;0.80;;;8.10;68.00;;;;;;5114465;28;20075;-70
2022/05/02 01:26:07;;;;;;;1.05;0.80;;;8.10;68.10;;;;;;5114213;28;20071;-70
2022/05/02 01:28:41;;;;;;;0.95;0.77;;;8.00;68.00;;;;;;5114411;28;20067;-70
2022/05/02 01:31:06;;;;;;;0.50;0.50;;;8.10;68.00;;;;;;5113116;28;20093;-71
2022/05/02 01:33:34;;;;;;;0.73;0.50;;;8.20;68.00;;;;;;5096198;28;20028;-71
2022/05/02 01:36:01;;;;;;;1.00;0.60;;;8.10;67.90;;;;;;5114205;28;20088;-71
2022/05/02 01:38:26;;;;;;;0.73;0.65;;;8.20;67.90;;;;;;5114128;28;20078;-71
2022/05/02 01:40:52;;;;;;;1.65;0.90;;;8.20;67.80;;;;;;5114705;28;20081;-71
2022/05/02 01:43:18;;;;;;;0.50;0.50;;;8.20;67.80;;;;;;5114074;28;20043;-71
2022/05/02 01:45:43;;;;;;;0.98;0.60;;;8.20;67.70;;;;;;5095925;28;20046;-71
2022/05/02 01:48:09;;;;;;;1.15;0.80;;;8.30;67.70;;;;;;5114558;28;20092;-71
2022/05/02 01:50:35;;;;;;;0.60;0.60;;;8.20;67.60;;;;;;5114193;28;20040;-71
2022/05/02 01:53:01;;;;;;;1.65;0.85;;;8.30;67.60;;;;;;5114523;28;20050;-71
2022/05/02 01:55:28;;;;;;;0.80;0.60;;;8.30;67.70;;;;;;5079338;28;20036;-71
2022/05/02 01:57:53;;;;;;;0.40;0.40;;;8.30;67.70;;;;;;5113876;28;20063;-71
2022/05/02 02:00:22;;;;;;;0.35;0.35;;;8.40;67.70;;;;;;5113577;28;20135;-71
2022/05/02 02:02:47;;;;;;;0.95;0.77;;;8.40;67.60;;;;;;5095270;28;20059;-71
2022/05/02 02:07:58;;;;;;;0.47;0.47;;;8.40;67.60;;;;;;5113852;28;20043;-70
2022/05/02 02:10:23;;;;;;;0.90;0.63;;;8.40;67.70;;;;;;5114272;28;20381;-70
2022/05/02 02:12:49;;;;;;;0.85;0.68;;;8.30;67.60;;;;;;5114300;28;20319;-70
2022/05/02 02:15:15;;;;;;;0.60;0.47;;;8.30;67.80;;;;;;5113837;28;20480;-70
2022/05/02 02:17:41;;;;;;;0.52;0.52;;;8.30;67.80;;;;;;5095429;28;20042;-71
2022/05/02 02:20:08;;;;;;;0.65;0.65;;;8.30;67.80;;;;;;5113805;28;20126;-71
2022/05/02 02:22:36;;;;;;;2.58;0.70;;;8.40;67.90;;;;;;5113584;28;20043;-71
2022/05/02 02:25:01;;;;;;;1.63;0.90;;;8.30;67.80;;;;;;5113740;28;20059;-71
2022/05/02 02:27:27;;;;;;;0.60;0.60;;;8.30;67.80;;;;;;5113279;28;20047;-70
2022/05/02 02:29:53;;;;;;;0.70;0.63;;;8.30;67.80;;;;;;5095045;28;20469;-71
2022/05/02 02:32:19;;;;;;;1.05;0.80;;;8.50;67.90;;;;;;5113143;28;20032;-70
2022/05/02 02:34:44;;;;;;;0.73;0.55;;;8.30;67.80;;;;;;5095153;28;20035;-71
2022/05/02 02:37:10;;;;;;;1.20;0.90;;;8.30;67.80;;;;;;5094879;28;20138;-71
2022/05/02 02:39:36;;;;;;;0.50;0.50;;;8.30;67.90;;;;;;5113060;28;20059;-71
2022/05/02 02:42:01;;;;;;;0.73;0.63;;;8.30;67.90;;;;;;5113379;28;20504;-71
2022/05/02 02:44:27;;;;;;;0.70;0.70;;;8.20;67.90;;;;;;5113264;28;20043;-71
2022/05/02 02:46:53;;;;;;;0.90;0.68;;;8.30;67.90;;;;;;5113294;28;20068;-71
2022/05/02 02:49:19;;;;;;;0.68;0.60;;;8.20;68.00;;;;;;5094955;28;20085;-71
2022/05/02 02:51:44;;;;;;;2.10;0.88;;;8.20;68.20;;;;;;5112977;28;20048;-71
2022/05/02 02:54:10;;;;;;;1.17;0.90;;;8.10;68.30;;;;;;5112982;28;20508;-70
2022/05/02 02:56:36;;;;;;;0.80;0.70;;;8.10;68.40;;;;;;5113346;28;20039;-71
2022/05/02 02:59:01;;;;;;;1.13;0.90;;;8.00;68.50;;;;;;5113072;28;20065;-71
2022/05/02 03:01:28;;;;;;;0.73;0.73;;;7.90;68.60;;;;;;5112885;28;20038;-70
2022/05/02 03:03:54;;;;;;;2.25;0.60;;;7.90;68.70;;;;;;5094861;28;20051;-71
2022/05/02 03:06:20;;;;;;;0.82;0.70;;;7.90;69.40;;;;;;5112840;28;20425;-71
2022/05/02 03:08:47;;;;;;;0.85;0.85;;;7.90;68.80;;;;;;5112748;28;20118;-71
2022/05/02 03:11:13;;;;;;;1.25;0.80;;;7.90;68.80;;;;;;5113207;28;20043;-71
2022/05/02 03:13:39;;;;;;;1.05;0.65;;;7.80;68.80;;;;;;5112822;28;20035;-71
2022/05/02 03:16:05;;;;;;;1.15;0.80;;;7.80;69.00;;;;;;5112772;28;20035;-71
2022/05/02 03:18:31;;;;;;;0.82;0.80;;;7.80;69.10;;;;;;5112948;28;20549;-71
2022/05/02 03:20:57;;;;;;;0.90;0.60;;;7.70;69.20;;;;;;5112745;28;20039;-71
2022/05/02 03:23:23;;;;;;;0.95;0.77;;;7.60;69.20;;;;;;5094351;28;20084;-71
2022/05/02 03:25:49;;;;;;;1.40;0.70;;;7.60;69.30;;;;;;5112994;28;20050;-71
2022/05/02 03:28:15;;;;;;;1.17;0.80;;;7.60;69.50;;;;;;5112731;28;20040;-70
2022/05/02 03:30:42;;;;;;;0.90;0.70;;;7.50;69.50;;;;;;5094092;28;20405;-71
2022/05/02 03:33:07;;;;;;;1.08;0.80;;;7.50;69.60;;;;;;5094624;28;20043;-70
2022/05/02 03:35:33;;;;;;;1.40;0.90;;;7.50;69.60;;;;;;5112528;28;20042;-71
2022/05/02 03:37:59;;;;;;;1.00;0.88;;;7.40;69.60;;;;;;5113009;28;20061;-71
2022/05/02 03:40:25;;;;;;;1.25;0.85;;;7.50;69.80;;;;;;5094202;28;20040;-71
2022/05/02 03:42:51;;;;;;;0.95;0.80;;;7.40;69.80;;;;;;5094357;28;20035;-71
2022/05/02 03:45:18;;;;;;;1.00;0.90;;;7.30;69.80;;;;;;5112395;28;20442;-71
2022/05/02 03:47:44;;;;;;;0.98;0.68;;;7.30;69.90;;;;;;5094086;28;20059;-71
2022/05/02 03:50:09;;;;;;;1.40;0.80;;;7.20;69.90;;;;;;5112260;28;20047;-71
2022/05/02 03:52:35;;;;;;;1.48;0.90;;;7.20;70.00;;;;;;5094101;28;20047;-71
2022/05/02 03:55:03;;;;;;;0.70;0.70;;;7.20;70.10;;;;;;5093894;28;20054;-71
2022/05/02 03:57:28;;;;;;;1.00;0.80;;;7.10;70.10;;;;;;5112161;28;20369;-71
2022/05/02 03:59:54;;;;;;;0.60;0.60;;;7.00;70.10;;;;;;5093643;28;20044;-71
2022/05/02 04:02:20;;;;;;;1.40;0.90;;;7.00;70.20;;;;;;5112549;28;20126;-71
2022/05/02 04:04:45;;;;;;;0.80;0.60;;;7.00;70.20;;;;;;5112245;28;20158;-71
2022/05/02 04:07:11;;;;;;;1.75;0.77;;;7.00;70.30;;;;;;5112726;28;20040;-71
2022/05/02 04:09:37;;;;;;;0.65;0.60;;;7.00;70.40;;;;;;5094410;28;20089;-70
2022/05/02 04:12:03;;;;;;;1.10;1.00;;;6.90;70.40;;;;;;5112245;28;20374;-71
2022/05/02 04:14:29;;;;;;;0.90;0.60;;;6.90;70.40;;;;;;5112254;28;20051;-70
2022/05/02 04:16:54;;;;;;;1.00;0.70;;;6.80;70.50;;;;;;5112459;28;20061;-70
2022/05/02 04:19:20;;;;;;;1.27;0.90;;;6.80;70.60;;;;;;5093745;28;20116;-71
2022/05/02 04:21:46;;;;;;;0.93;0.80;;;6.80;70.60;;;;;;5112714;28;20126;-70
2022/05/02 04:24:12;;;;;;;0.93;0.80;;;6.80;70.70;;;;;;5112566;28;20085;-71
2022/05/02 04:26:38;;;;;;;1.00;0.80;;;6.70;70.60;;;;;;5115450;28;20063;-71
2022/05/02 04:29:04;;;;;;;0.90;0.80;;;6.70;70.70;;;;;;5097318;28;20071;-70
2022/05/02 04:31:29;;;;;;;1.02;0.82;;;6.80;70.80;;;;;;5115806;28;20472;-70
2022/05/02 04:33:55;;;;;;;1.13;0.68;;;6.70;70.80;;;;;;5116106;28;20046;-71
2022/05/02 04:36:21;;;;;;;1.30;0.90;;;6.70;70.80;;;;;;5116040;28;20035;-71
2022/05/02 04:38:46;;;;;;;0.80;0.60;;;6.60;70.80;;;;;;5115707;28;20032;-71
2022/05/02 04:41:14;;;;;;;1.08;0.50;;;6.80;71.00;;;;;;5115480;28;20062;-70
2022/05/02 04:43:41;;;;;;;1.30;0.90;;;6.70;70.90;;;;;;5097416;28;20077;-71
2022/05/02 04:46:07;;;;;;;1.08;0.80;;;6.70;70.90;;;;;;5097179;28;20039;-70
2022/05/02 04:48:33;;;;;;;0.93;0.85;;;6.70;70.90;;;;;;5115258;28;20435;-70
2022/05/02 04:50:59;;;;;;;1.30;0.88;;;6.70;70.90;;;;;;5115318;28;20035;-71
2022/05/02 04:53:24;;;;;;;1.45;0.90;;;6.70;70.90;;;;;;5115957;28;20114;-71
2022/05/02 04:55:50;;;;;;;1.35;0.90;;;6.80;71.00;;;;;;5096948;28;20067;-71
2022/05/02 04:58:16;;;;;;;0.60;0.60;;;6.70;70.90;;;;;;5115032;28;20130;-71
2022/05/02 05:00:43;;;;;;;1.00;0.90;;;6.70;71.00;;;;;;5115188;28;20071;-71
2022/05/02 05:03:09;;;;;;;1.25;0.82;;;6.70;70.90;;;;;;5097212;28;20082;-71
2022/05/02 05:05:34;;;;;;;1.05;0.90;;;6.70;71.00;;;;;;5096887;28;20077;-70
2022/05/02 05:08:00;;;;;;;0.68;0.60;;;6.80;71.10;;;;;;5115704;28;20040;-71
2022/05/02 05:10:26;;;;;;;0.60;0.57;;;6.70;71.10;;;;;;5097437;28;20042;-71
2022/05/02 05:13:06;;;;;;;1.17;0.60;;;6.70;71.00;;;;;;5097129;28;20137;-71
2022/05/02 05:19:07;;;;;;;1.15;0.80;;;6.80;71.00;;;;;;5114907;28;20055;-71
2022/05/02 05:21:58;;;;;;;0.95;0.70;;;6.90;71.00;;;;;;5083608;28;20177;-71
2022/05/02 05:24:55;;;;;;;0.95;0.70;;;6.90;70.90;;;;;;5100539;28;20032;-71
2022/05/02 05:27:46;;;;;;;0.95;0.60;;;6.90;70.90;;;;;;5114353;28;20435;-71
2022/05/02 05:30:12;;;;;;;0.73;0.50;;;7.00;70.80;;;;;;5096420;28;20497;-71
2022/05/02 05:32:46;;;;;;;2.47;0.80;;;7.00;70.80;;;;;;5114673;28;20127;-71
2022/05/02 05:35:20;;;;;;;0.98;0.70;;;7.10;70.80;;;;;;5114683;28;20040;-71
2022/05/02 05:38:04;;;;;;;1.15;0.80;;;7.10;70.80;;;;;;5114730;28;20084;-71
2022/05/02 05:40:38;;;;;;;0.90;0.63;;;7.20;70.80;;;;;;5113451;28;20040;-71
2022/05/02 05:43:14;;;;;;;1.08;0.85;;;7.30;70.70;;;;;;5115161;28;20531;-72
2022/05/02 05:46:07;;;;;;;0.80;0.70;;;7.40;70.50;;;;;;5114480;28;20044;-72
2022/05/02 05:48:56;;;;;;;0.63;0.63;;;7.60;70.30;;;;;;5114876;28;20061;-72
2022/05/02 05:51:48;;;;;;;0.90;0.73;;;7.70;70.10;;;;;;5098095;28;20130;-71
2022/05/02 05:54:46;;;;;;;0.90;0.70;;;7.80;69.80;;;;;;5082555;28;20161;-72
2022/05/02 05:57:32;;;;;;;1.30;0.80;;;8.00;69.50;;;;;;5098972;28;20083;-72
2022/05/02 06:00:09;;;;;;;0.82;0.77;;;8.20;69.30;;;;;;5077348;28;20119;-72
2022/05/02 06:02:48;;;;;;;1.25;0.90;;;8.30;69.10;;;;;;5095693;28;20039;-72
2022/05/02 06:05:15;;;;;;;1.33;0.90;;;8.40;68.90;;;;;;5114124;28;20047;-72
2022/05/02 06:07:42;;;;;;;1.15;0.80;;;8.50;68.70;;;;;;5113962;28;20048;-72
2022/05/02 06:10:09;;;;;;;1.73;0.60;;;8.60;68.60;;;;;;5114239;28;20047;-72
2022/05/02 06:12:37;;;;;;;0.98;0.63;;;8.80;68.50;;;;;;5114392;28;20097;-72
2022/05/02 06:20:24;;;;;;;1.77;0.98;;;9.10;68.10;;;;;;5113780;28;20042;-72
2022/05/02 06:22:51;;;;;;;1.58;0.80;;;9.20;67.90;;;;;;5114006;28;20131;-72
2022/05/02 06:25:19;;;;;;;0.70;0.70;;;9.30;67.80;;;;;;5095849;28;20038;-72
2022/05/02 06:27:48;;;;;;;1.20;1.05;;;9.40;67.70;;;;;;5113903;28;20046;-72
2022/05/02 06:30:15;;;;;;;1.27;0.77;;;9.50;67.70;;;;;;5113768;28;20500;-72
2022/05/02 06:32:44;;;;;;;0.80;0.70;;;9.60;67.60;;;;;;5113835;28;20404;-72
2022/05/02 06:35:10;;;;;;;1.17;0.80;;;9.70;67.50;;;;;;5113651;28;20039;-72
2022/05/02 06:37:59;;;;;;;1.58;0.90;;;9.80;67.30;;;;;;5114070;28;20027;-72
2022/05/02 06:40:36;;;;;;;0.80;0.80;;;9.90;67.30;;;;;;5112719;28;20044;-72
2022/05/02 06:43:25;;;;;;;0.85;0.73;;;10.00;67.20;;;;;;5113635;28;20546;-72
2022/05/02 06:46:07;;;;;;;0.73;0.68;;;10.20;67.20;;;;;;5094180;28;20130;-72
2022/05/02 06:48:40;;;;;;;0.95;0.77;;;10.20;67.00;;;;;;5111093;28;20473;-72
2022/05/02 06:51:10;;;;;;;0.90;0.73;;;10.30;67.00;;;;;;5113383;28;20047;-72
2022/05/02 06:53:59;;;;;;;0.65;0.60;;;10.40;66.90;;;;;;5113593;28;20035;-72
2022/05/02 06:56:50;;;;;;;0.85;0.70;;;10.40;66.90;;;;;;5112417;28;20145;-72
2022/05/02 06:59:37;;;;;;;1.10;0.75;;;10.50;66.80;;;;;;5113235;28;20046;-72
2022/05/02 07:02:30;;;;;;;0.98;0.70;;;10.70;66.80;;;;;;5113559;28;20092;-73
2022/05/02 07:04:56;;;;;;;1.10;0.60;;;10.60;66.60;;;;;;5096909;28;20052;-73
2022/05/02 07:07:36;;;;;;;1.02;0.80;;;10.70;66.50;;;;;;5113527;28;20035;-72
2022/05/02 07:10:08;;;;;;;0.80;0.63;;;10.80;66.40;;;;;;5077743;28;20047;-73
2022/05/02 07:12:49;;;;;;;0.55;0.55;;;10.90;66.30;;;;;;5095070;28;20036;-71
2022/05/02 07:15:41;;;;;;;0.82;0.70;;;11.00;66.30;;;;;;5112253;28;20480;-74
2022/05/02 07:18:16;;;;;;;0.57;0.50;;;11.10;66.20;;;;;;5113247;28;20063;-72
2022/05/02 07:21:15;;;;;;;1.38;0.70;;;11.20;65.90;;;;;;5094811;28;20040;-74
2022/05/02 07:23:56;;;;;;;1.00;0.80;;;11.30;65.80;;;;;;5093214;28;20035;-73
2022/05/02 07:26:22;;;;;;;1.02;0.88;;;11.40;65.80;;;;;;5111332;28;20491;-72
2022/05/02 07:28:50;;;;;;;0.82;0.63;;;11.50;65.70;;;;;;5113264;28;20127;-72
2022/05/02 07:31:21;;;;;;;1.10;0.90;;;11.60;65.50;;;;;;5094853;28;20043;-72
2022/05/02 07:33:51;;;;;;;1.15;0.80;;;11.70;65.40;;;;;;5112657;28;20180;-73
2022/05/02 07:36:19;;;;;;;0.55;0.55;;;11.90;65.20;;;;;;5094675;28;20040;-72
2022/05/02 07:38:49;;;;;;;1.17;0.80;;;12.00;65.00;;;;;;5078009;28;20039;-73
2022/05/02 07:41:25;;;;;;;0.65;0.60;;;12.10;64.80;;;;;;5094350;28;20046;-73
2022/05/02 07:44:01;;;;;;;0.82;0.75;;;12.20;64.70;;;;;;5112788;28;20036;-73
2022/05/02 07:46:35;;;;;;;0.60;0.60;;;12.40;64.40;;;;;;5111258;28;20044;-74
2022/05/02 07:49:04;;;;;;;1.33;0.73;;;12.60;64.90;;;;;;5111399;28;20044;-73
2022/05/02 07:51:31;;;;;;;1.10;0.90;;;12.80;64.00;;;;;;5112536;28;20078;-73
2022/05/02 07:53:59;;;;;;;0.65;0.60;;;12.90;63.70;;;;;;5077408;28;20048;-73
2022/05/02 07:56:28;;;;;;;0.82;0.60;;;13.10;63.40;;;;;;5112538;28;20043;-73
2022/05/02 07:58:55;;;;;;;0.73;0.70;;;13.30;63.30;;;;;;5112573;28;20070;-72
2022/05/02 08:01:23;;;;;;;0.80;0.70;;;13.50;63.10;;;;;;5098357;28;20043;-72
2022/05/02 08:03:49;;;;;;;0.90;0.70;;;13.70;62.90;;;;;;5116203;28;20089;-73
2022/05/02 08:06:43;;;;;;;1.00;0.77;;;13.90;62.70;;;;;;5097679;28;20028;-75
2022/05/02 08:09:48;;;;;;;1.15;0.80;;;14.10;62.40;;;;;;5115603;28;20047;-73
2022/05/02 08:12:26;;;;;;;1.23;0.75;;;14.40;62.20;;;;;;5086738;28;20031;-72
2022/05/02 08:15:08;;;;;;;0.70;0.68;;;14.70;62.10;;;;;;5115897;28;20042;-74
2022/05/02 08:17:53;;;;;;;1.88;0.90;;;14.70;61.90;;;;;;5097614;28;20036;-73
2022/05/02 08:20:49;;;;;;;1.00;0.70;;;15.00;61.80;;;;;;5114795;28;20040;-72
2022/05/02 08:29:48;;;;;;;0.77;0.70;;;15.60;61.30;;;;;;5115407;28;20032;-74
2022/05/02 08:32:29;;;;;;;0.63;0.63;;;15.70;61.20;;;;;;5115484;28;20071;-75
2022/05/02 08:35:07;;;;;;;1.35;1.00;;;15.90;61.10;;;;;;5115264;28;20044;-75
2022/05/02 08:37:58;;;;;;;1.58;1.23;;;16.20;61.00;;;;;;5115419;28;20042;-74
2022/05/02 08:41:00;;;;;;;1.15;0.88;;;16.30;60.60;;;;;;5101309;28;20089;-74
2022/05/02 08:44:00;;;;;;;1.10;0.95;;;16.30;60.70;;;;;;5114838;28;20130;-76
2022/05/02 08:47:00;;;;;;;1.30;0.80;;;16.50;60.60;;;;;;5115272;28;20036;-72
2022/05/02 08:50:02;;;;;;;1.25;1.00;;;16.60;60.60;;;;;;5097152;28;20043;-73
2022/05/02 08:52:50;;;;;;;1.98;0.90;;;16.70;60.60;;;;;;5096694;28;20119;-74
2022/05/02 08:55:53;;;;;;;1.13;0.85;;;16.90;60.50;;;;;;5113266;28;20085;-71
2022/05/02 08:58:51;;;;;;;0.80;0.80;;;17.20;60.20;;;;;;5115258;28;20032;-72
2022/05/02 09:01:51;;;;;;;1.10;0.93;;;17.40;60.10;;;;;;5114097;28;20063;-73
2022/05/02 09:04:56;;;;;;;1.23;1.13;;;17.40;59.90;;;;;;5083354;28;20043;-76
2022/05/02 09:08:08;;;;;;;2.10;0.85;;;17.40;60.10;;;;;;5097880;28;20150;-73
2022/05/02 09:11:31;;;;;;;1.50;0.95;;;17.50;60.00;;;;;;5085025;28;20153;-72
2022/05/02 09:14:25;;;;;;;0.93;0.88;;;17.60;60.00;;;;;;5114948;28;20047;-75
2022/05/02 09:17:22;;;;;;;1.00;0.80;;;17.60;60.20;;;;;;5114655;28;20101;-71
2022/05/02 09:20:25;;;;;;;1.58;0.88;;;17.70;60.10;;;;;;5114735;28;20126;-72
2022/05/02 09:23:25;;;;;;;0.95;0.80;;;17.80;60.00;;;;;;5082525;28;20074;-72
2022/05/02 09:26:18;;;;;;;1.35;0.93;;;17.90;59.90;;;;;;5096150;28;20039;-73
2022/05/02 09:29:23;;;;;;;0.95;0.80;;;18.10;59.70;;;;;;5114789;28;20493;-72
2022/05/02 09:32:03;;;;;;;1.55;0.90;;;18.20;59.60;;;;;;5114526;28;20063;-73
2022/05/02 09:34:36;;;;;;;1.17;1.02;;;18.20;59.50;;;;;;5114572;28;20562;-72
2022/05/02 09:37:05;;;;;;;2.25;1.20;;;18.30;59.60;;;;;;5077932;28;20036;-73
2022/05/02 09:39:47;;;;;;;1.55;1.00;;;18.50;59.40;;;;;;5112708;28;20128;-75
2022/05/02 09:42:34;;;;;;;1.10;1.00;;;18.60;59.20;;;;;;5115295;28;20040;-71
2022/05/02 09:51:58;;;;;;;1.10;1.00;;;18.40;59.10;;;;;;5068831;28;20060;-73
2022/05/02 09:57:35;;;;;;;1.75;1.38;;;18.60;59.20;;;;;;5014372;28;20084;-74
2022/05/02 10:02:58;;;;;;;1.92;1.27;;;18.60;59.10;;;;;;5011757;28;20058;-71
2022/05/02 10:05:53;;;;;;;2.08;1.42;;;18.70;59.80;;;;;;5011724;28;20038;-73
2022/05/02 10:08:43;;;;;;;1.73;1.23;;;18.90;58.70;;;;;;4974980;28;20046;-74
2022/05/02 10:11:26;;;;;;;1.80;1.20;;;18.90;58.30;;;;;;4994027;28;20042;-71
2022/05/02 10:14:26;;;;;;;1.77;1.20;;;18.80;58.30;;;;;;4995114;28;20049;-71
2022/05/02 10:17:08;;;;;;;1.73;1.10;;;18.80;58.40;;;;;;4981536;28;20551;-72
2022/05/02 10:20:04;;;;;;;1.23;0.93;;;18.90;58.50;;;;;;4978727;28;20515;-71
2022/05/02 10:22:44;;;;;;;1.00;0.90;;;18.90;58.30;;;;;;5011899;28;20094;-71
2022/05/02 10:25:25;;;;;;;0.90;0.90;;;19.00;58.20;;;;;;5031303;28;20054;-71
2022/05/02 10:28:07;;;;;;;1.27;1.05;;;19.20;58.00;;;;;;5031342;28;20457;-71
2022/05/02 10:31:04;;;;;;;1.58;1.10;;;19.20;57.80;;;;;;5061021;28;20481;-71
2022/05/02 10:33:39;;;;;;;1.55;1.20;;;19.40;57.50;;;;;;5112652;28;20049;-71
2022/05/02 10:36:07;;;;;;;1.85;1.35;;;19.40;57.40;;;;;;5113619;28;20100;-72
2022/05/02 10:38:34;;;;;;;1.40;1.13;;;19.20;57.40;;;;;;5078848;28;20104;-72
2022/05/02 10:41:15;;;;;;;2.25;1.52;;;19.00;57.70;;;;;;5114033;28;20035;-72
2022/05/02 10:44:03;;;;;;;1.35;1.13;;;18.90;57.80;;;;;;5095860;28;20130;-73
2022/05/02 10:46:31;;;;;;;1.85;1.30;;;19.00;57.90;;;;;;5094259;28;20039;-72
2022/05/02 10:49:19;;;;;;;1.92;1.20;;;19.10;57.70;;;;;;5078440;28;20036;-71
2022/05/02 10:51:55;;;;;;;1.00;0.80;;;19.20;57.40;;;;;;5095613;28;20542;-72
2022/05/02 10:54:50;;;;;;;2.10;1.40;;;19.20;57.30;;;;;;5113550;28;20044;-71
2022/05/02 10:57:31;;;;;;;3.33;1.48;;;19.20;57.10;;;;;;5113087;28;20051;-72
2022/05/02 11:00:04;;;;;;;2.00;1.55;;;19.10;57.10;;;;;;5078753;28;20374;-72
2022/05/02 11:03:02;;;;;;;1.35;1.02;;;19.10;56.90;;;;;;5094680;28;20092;-72
2022/05/02 11:05:36;;;;;;;1.48;1.20;;;19.20;56.80;;;;;;5111799;28;20128;-73
2022/05/02 11:08:22;;;;;;;1.58;1.33;;;19.30;56.70;;;;;;5061996;28;20047;-72
2022/05/02 11:11:05;;;;;;;3.33;1.50;;;19.30;56.40;;;;;;5112458;28;20031;-72
2022/05/02 11:13:56;;;;;;;1.23;1.05;;;19.40;56.10;;;;;;5077955;28;20036;-72
2022/05/02 11:16:27;;;;;;;1.45;1.10;;;19.40;55.90;;;;;;5094701;28;20069;-72
2022/05/02 11:22:23;;;;;;;1.25;1.08;;;19.30;55.80;;;;;;5097492;28;20051;-72
2022/05/02 11:25:06;;;;;;;2.10;1.38;;;19.30;55.90;;;;;;5066770;28;20075;-73
2022/05/02 11:27:47;;;;;;;2.35;1.20;;;19.20;55.80;;;;;;5092770;28;20484;-72
2022/05/02 11:30:15;;;;;;;2.20;1.45;;;19.30;55.80;;;;;;5059459;28;20046;-72
2022/05/02 11:33:21;;;;;;;1.30;1.20;;;19.40;55.60;;;;;;5094864;28;20055;-72
2022/05/02 11:36:00;;;;;;;1.70;1.13;;;19.50;55.40;;;;;;5100616;28;20039;-72
2022/05/02 11:38:48;;;;;;;1.23;1.00;;;19.60;55.20;;;;;;5095014;28;20036;-72
2022/05/02 11:41:19;;;;;;;1.48;0.90;;;19.70;55.00;;;;;;5079267;28;20036;-71
2022/05/02 11:43:46;;;;;;;;;;;19.70;54.90;;;;;;5113538;28;20081;-73
2022/05/02 11:46:20;;;;;;;0.70;0.70;;;19.70;55.00;;;;;;5113147;28;19912;-71
2022/05/02 11:49:03;;;;;;;0.82;0.82;;;19.70;54.90;;;;;;5112555;28;20036;-73
2022/05/02 11:51:46;;;;;;;1.40;1.17;;;19.80;54.70;;;;;;5112545;28;20392;-72
2022/05/02 11:54:36;;;;;;;1.38;1.10;;;19.90;54.50;;;;;;5112830;28;20039;-73
2022/05/02 11:57:22;;;;;;;1.77;1.20;;;19.90;54.40;;;;;;5112650;28;20094;-74
2022/05/02 12:00:09;;;;;;;0.85;0.80;;;19.80;54.50;;;;;;5112564;28;20044;-73
2022/05/02 12:03:03;;;;;;;1.27;0.82;;;19.80;54.60;;;;;;5094094;28;20093;-73
2022/05/02 12:05:35;;;;;;;0.82;0.82;;;19.80;54.50;;;;;;5098688;28;20043;-72
2022/05/02 12:08:04;;;;;;;1.48;1.10;;;19.90;54.50;;;;;;5113020;28;20077;-73
2022/05/02 12:10:35;;;;;;;1.30;1.10;;;19.90;54.30;;;;;;5094693;28;20043;-73
2022/05/02 12:13:02;;;;;;;1.60;1.20;;;19.80;54.20;;;;;;5112468;28;20100;-73
2022/05/02 12:15:28;;;;;;;0.90;0.90;;;19.80;54.40;;;;;;5112475;28;20040;-72
2022/05/02 12:18:03;;;;;;;2.00;1.30;;;19.80;54.50;;;;;;5112281;28;20534;-72
2022/05/02 12:20:33;;;;;;;1.08;0.95;;;19.80;54.40;;;;;;5077802;28;20047;-71
2022/05/02 12:23:09;;;;;;;2.05;1.60;;;19.70;54.40;;;;;;5094112;28;20040;-72
2022/05/02 12:25:38;;;;;;;1.88;1.40;;;19.70;54.20;;;;;;5094803;28;20040;-72
2022/05/02 12:28:04;;;;;;;2.78;1.70;;;19.70;54.50;;;;;;5112735;28;20051;-72
2022/05/02 12:30:31;;;;;;;1.50;1.15;;;19.70;54.30;;;;;;5060416;28;20401;-72
2022/05/02 12:33:01;;;;;;;1.83;1.00;;;19.70;54.20;;;;;;5094362;28;20044;-70
2022/05/02 12:35:40;;;;;;;1.75;1.40;;;19.80;54.10;;;;;;5110484;28;20039;-71
2022/05/02 12:38:12;;;;;;;1.25;1.10;;;19.80;53.70;;;;;;5112562;28;20046;-72
2022/05/02 12:40:40;;;;;;;0.82;0.82;;;19.70;53.80;;;;;;5111722;28;20044;-72
2022/05/02 12:43:13;;;;;;;1.70;1.27;;;19.50;54.10;;;;;;5112457;28;20525;-72
2022/05/02 12:45:45;;;;;;;1.77;1.25;;;19.40;54.20;;;;;;5113281;28;20032;-73
2022/05/02 12:48:23;;;;;;;1.17;1.02;;;19.30;54.30;;;;;;5097716;28;20043;-72
2022/05/02 12:50:51;;;;;;;1.55;1.13;;;19.20;54.50;;;;;;5096511;28;20044;-73
2022/05/02 12:56:02;;;;;;;1.55;1.10;;;19.10;54.60;;;;;;5115227;28;20070;-72
2022/05/02 13:01:12;;;;;;;1.50;1.17;;;19.10;54.30;;;;;;5114956;28;20378;-72
2022/05/02 13:03:41;;;;;;;1.00;0.90;;;19.20;54.30;;;;;;5115024;28;20129;-72
2022/05/02 13:06:10;;;;;;;1.10;0.90;;;19.10;54.20;;;;;;5115563;28;20062;-71
2022/05/02 13:08:41;;;;;;;1.20;0.90;;;19.10;54.30;;;;;;5115584;28;20028;-73
2022/05/02 13:11:11;;;;;;;1.05;0.88;;;19.10;54.20;;;;;;5115698;28;20073;-72
2022/05/02 13:13:41;;;;;;;1.75;1.27;;;19.20;54.10;;;;;;5079925;28;20047;-72
2022/05/02 13:16:25;;;;;;;1.48;1.10;;;19.20;53.90;;;;;;5097816;28;20032;-72
2022/05/02 13:18:51;;;;;;;1.90;1.27;;;19.30;53.80;;;;;;5079783;28;20050;-73
2022/05/02 13:21:18;;;;;;;1.88;1.40;;;19.40;53.60;;;;;;5114944;28;20047;-73
2022/05/02 13:23:48;;;;;;;1.50;1.10;;;19.40;53.40;;;;;;5114995;28;20031;-72
2022/05/02 13:26:36;;;;;;;1.15;1.02;;;19.50;53.40;;;;;;5114759;28;20040;-73
2022/05/02 13:29:28;;;;;;;2.00;1.13;;;19.60;53.20;;;;;;5115213;28;20086;-74
2022/05/02 13:32:01;;;;;;;2.60;1.20;;;19.60;52.90;;;;;;5099710;28;20035;-73
2022/05/02 13:34:51;;;;;;;1.38;1.10;;;19.80;52.80;;;;;;5097434;28;20042;-72
2022/05/02 13:37:33;;;;;;;1.08;0.88;;;19.80;52.80;;;;;;5099538;28;20048;-73
2022/05/02 13:40:10;;;;;;;1.10;1.00;;;19.80;52.80;;;;;;5114512;28;20031;-73
2022/05/02 13:42:52;;;;;;;1.58;1.00;;;19.60;52.90;;;;;;5113389;28;20036;-73
2022/05/02 13:45:44;;;;;;;1.27;1.00;;;19.50;53.10;;;;;;5115183;28;20031;-73
2022/05/02 13:48:37;;;;;;;1.10;0.90;;;19.40;53.20;;;;;;5099555;28;20047;-72
2022/05/02 13:51:18;;;;;;;0.95;0.80;;;19.20;53.40;;;;;;5083169;28;20089;-73
2022/05/02 13:53:49;;;;;;;;;;;19.20;53.50;;;;;;5114428;28;20481;-73
2022/05/02 13:56:21;;;;;;;;;;;19.30;53.70;;;;;;5114269;28;19918;-73
2022/05/02 13:59:04;;;;;;;0.90;0.82;;;19.10;53.80;;;;;;5113615;28;20353;-73
2022/05/02 14:01:51;;;;;;;1.20;1.00;;;19.10;53.60;;;;;;5114026;28;20040;-73
2022/05/02 14:07:13;;;;;;;0.60;0.60;;;19.00;53.50;;;;;;5113988;28;20043;-73
2022/05/02 14:09:48;;;;;;;0.70;0.63;;;19.00;53.60;;;;;;5095930;28;20051;-74
2022/05/02 14:12:34;;;;;;;1.10;0.93;;;18.90;53.60;;;;;;5113969;28;20084;-74
2022/05/02 14:15:06;;;;;;;1.13;0.90;;;18.90;53.60;;;;;;5096752;28;20111;-74